sensor_id;sensor_type;location;lat;lon;timestamp;P1;durP1;ratioP1;P2;durP2;ratioP2
4057;SDS011;2044;48.692;9.020;2023-04-19T00:00:31;4.17;;;2.90;;
4057;SDS011;2044;48.692;9.020;2023-04-19T00:02:59;2.47;;;1.93;;
4057;SDS011;2044;48.692;9.020;2023-04-19T00:05:27;6.77;;;3.90;;
4057;SDS011;2044;48.692;9.020;2023-04-19T00:07:54;5.00;;;3.77;;
4057;SDS011;2044;48.692;9.020;2023-04-19T00:10:20;6.10;;;3.57;;
4057;SDS011;2044;48.692;9.020;2023-04-19T00:12:47;5.50;;;3.70;;
4057;SDS011;2044;48.692;9.020;2023-04-19T00:15:14;5.00;;;4.00;;
4057;SDS011;2044;48.692;9.020;2023-04-19T00:17:41;7.73;;;2.57;;
4057;SDS011;2044;48.692;9.020;2023-04-19T00:20:08;4.50;;;2.10;;
4057;SDS011;2044;48.692;9.020;2023-04-19T00:22:38;4.40;;;2.47;;
4057;SDS011;2044;48.692;9.020;2023-04-19T00:25:05;4.70;;;3.37;;
4057;SDS011;2044;48.692;9.020;2023-04-19T00:27:32;5.07;;;3.20;;
4057;SDS011;2044;48.692;9.020;2023-04-19T00:29:59;3.50;;;2.30;;
4057;SDS011;2044;48.692;9.020;2023-04-19T00:32:26;3.13;;;2.10;;
4057;SDS011;2044;48.692;9.020;2023-04-19T00:34:53;4.67;;;2.80;;
4057;SDS011;2044;48.692;9.020;2023-04-19T00:37:19;4.80;;;2.50;;
4057;SDS011;2044;48.692;9.020;2023-04-19T00:39:48;4.70;;;3.07;;
4057;SDS011;2044;48.692;9.020;2023-04-19T00:42:14;7.70;;;3.83;;
4057;SDS011;2044;48.692;9.020;2023-04-19T00:44:41;5.33;;;4.13;;
4057;SDS011;2044;48.692;9.020;2023-04-19T00:47:08;4.07;;;2.93;;
4057;SDS011;2044;48.692;9.020;2023-04-19T00:49:34;2.47;;;1.73;;
4057;SDS011;2044;48.692;9.020;2023-04-19T00:52:02;6.80;;;4.10;;
4057;SDS011;2044;48.692;9.020;2023-04-19T00:54:29;9.53;;;4.50;;
4057;SDS011;2044;48.692;9.020;2023-04-19T00:56:57;10.13;;;3.57;;
4057;SDS011;2044;48.692;9.020;2023-04-19T00:59:25;3.07;;;1.87;;
4057;SDS011;2044;48.692;9.020;2023-04-19T01:01:52;2.60;;;1.97;;
4057;SDS011;2044;48.692;9.020;2023-04-19T01:04:18;3.80;;;3.13;;
4057;SDS011;2044;48.692;9.020;2023-04-19T01:06:46;1.70;;;1.60;;
4057;SDS011;2044;48.692;9.020;2023-04-19T01:09:13;5.03;;;3.70;;
4057;SDS011;2044;48.692;9.020;2023-04-19T01:11:40;9.77;;;3.93;;
4057;SDS011;2044;48.692;9.020;2023-04-19T01:14:08;4.23;;;1.77;;
4057;SDS011;2044;48.692;9.020;2023-04-19T01:16:35;3.10;;;2.10;;
4057;SDS011;2044;48.692;9.020;2023-04-19T01:19:03;6.23;;;3.17;;
4057;SDS011;2044;48.692;9.020;2023-04-19T01:21:29;4.07;;;2.30;;
4057;SDS011;2044;48.692;9.020;2023-04-19T01:23:57;8.60;;;4.30;;
4057;SDS011;2044;48.692;9.020;2023-04-19T01:26:25;3.10;;;2.70;;
4057;SDS011;2044;48.692;9.020;2023-04-19T01:28:51;5.43;;;3.73;;
4057;SDS011;2044;48.692;9.020;2023-04-19T01:31:18;5.50;;;2.07;;
4057;SDS011;2044;48.692;9.020;2023-04-19T01:33:45;5.13;;;3.40;;
4057;SDS011;2044;48.692;9.020;2023-04-19T01:36:12;4.07;;;1.93;;
4057;SDS011;2044;48.692;9.020;2023-04-19T01:38:38;6.50;;;2.90;;
4057;SDS011;2044;48.692;9.020;2023-04-19T01:41:06;6.67;;;3.37;;
4057;SDS011;2044;48.692;9.020;2023-04-19T01:43:33;6.07;;;2.97;;
4057;SDS011;2044;48.692;9.020;2023-04-19T01:46:00;4.93;;;3.70;;
4057;SDS011;2044;48.692;9.020;2023-04-19T01:48:26;4.60;;;1.87;;
4057;SDS011;2044;48.692;9.020;2023-04-19T01:50:53;6.30;;;3.33;;
4057;SDS011;2044;48.692;9.020;2023-04-19T01:53:20;5.50;;;3.33;;
4057;SDS011;2044;48.692;9.020;2023-04-19T01:55:46;5.03;;;3.27;;
4057;SDS011;2044;48.692;9.020;2023-04-19T01:58:14;12.50;;;5.27;;
4057;SDS011;2044;48.692;9.020;2023-04-19T02:00:41;9.70;;;4.10;;
4057;SDS011;2044;48.692;9.020;2023-04-19T02:03:08;3.20;;;2.27;;
4057;SDS011;2044;48.692;9.020;2023-04-19T02:05:34;7.60;;;3.20;;
4057;SDS011;2044;48.692;9.020;2023-04-19T02:08:03;2.40;;;2.00;;
4057;SDS011;2044;48.692;9.020;2023-04-19T02:10:30;5.70;;;2.93;;
4057;SDS011;2044;48.692;9.020;2023-04-19T02:12:57;9.67;;;5.03;;
4057;SDS011;2044;48.692;9.020;2023-04-19T02:15:25;7.73;;;4.00;;
4057;SDS011;2044;48.692;9.020;2023-04-19T02:17:51;3.30;;;1.90;;
4057;SDS011;2044;48.692;9.020;2023-04-19T02:20:19;3.37;;;2.63;;
4057;SDS011;2044;48.692;9.020;2023-04-19T02:22:45;7.23;;;3.90;;
4057;SDS011;2044;48.692;9.020;2023-04-19T02:25:12;2.37;;;2.17;;
4057;SDS011;2044;48.692;9.020;2023-04-19T02:27:40;7.37;;;3.40;;
4057;SDS011;2044;48.692;9.020;2023-04-19T02:30:07;3.10;;;2.80;;
4057;SDS011;2044;48.692;9.020;2023-04-19T02:32:36;3.60;;;2.97;;
4057;SDS011;2044;48.692;9.020;2023-04-19T02:35:03;10.63;;;4.10;;
4057;SDS011;2044;48.692;9.020;2023-04-19T02:37:30;5.23;;;2.93;;
4057;SDS011;2044;48.692;9.020;2023-04-19T02:39:57;5.43;;;2.60;;
4057;SDS011;2044;48.692;9.020;2023-04-19T02:42:23;5.13;;;3.20;;
4057;SDS011;2044;48.692;9.020;2023-04-19T02:44:50;7.60;;;1.97;;
4057;SDS011;2044;48.692;9.020;2023-04-19T02:47:17;4.30;;;2.50;;
4057;SDS011;2044;48.692;9.020;2023-04-19T02:49:45;9.67;;;4.27;;
4057;SDS011;2044;48.692;9.020;2023-04-19T02:52:11;5.00;;;2.93;;
4057;SDS011;2044;48.692;9.020;2023-04-19T02:54:38;3.93;;;2.47;;
4057;SDS011;2044;48.692;9.020;2023-04-19T02:57:05;3.37;;;2.23;;
4057;SDS011;2044;48.692;9.020;2023-04-19T02:59:31;7.40;;;4.37;;
4057;SDS011;2044;48.692;9.020;2023-04-19T03:01:58;2.20;;;2.00;;
4057;SDS011;2044;48.692;9.020;2023-04-19T03:04:25;5.70;;;3.20;;
4057;SDS011;2044;48.692;9.020;2023-04-19T03:06:54;6.10;;;3.53;;
4057;SDS011;2044;48.692;9.020;2023-04-19T03:09:20;13.37;;;4.77;;
4057;SDS011;2044;48.692;9.020;2023-04-19T03:11:47;4.43;;;2.60;;
4057;SDS011;2044;48.692;9.020;2023-04-19T03:14:14;4.00;;;2.37;;
4057;SDS011;2044;48.692;9.020;2023-04-19T03:16:40;8.67;;;3.60;;
4057;SDS011;2044;48.692;9.020;2023-04-19T03:19:07;4.50;;;1.90;;
4057;SDS011;2044;48.692;9.020;2023-04-19T03:21:34;6.20;;;3.00;;
4057;SDS011;2044;48.692;9.020;2023-04-19T03:24:02;3.33;;;2.80;;
4057;SDS011;2044;48.692;9.020;2023-04-19T03:26:29;8.53;;;2.67;;
4057;SDS011;2044;48.692;9.020;2023-04-19T03:28:55;6.40;;;3.67;;
4057;SDS011;2044;48.692;9.020;2023-04-19T03:31:22;4.77;;;2.23;;
4057;SDS011;2044;48.692;9.020;2023-04-19T03:33:49;4.20;;;2.60;;
4057;SDS011;2044;48.692;9.020;2023-04-19T03:36:16;2.63;;;2.20;;
4057;SDS011;2044;48.692;9.020;2023-04-19T03:38:42;6.90;;;3.47;;
4057;SDS011;2044;48.692;9.020;2023-04-19T03:41:18;5.70;;;2.67;;
4057;SDS011;2044;48.692;9.020;2023-04-19T03:43:45;6.20;;;3.27;;
4057;SDS011;2044;48.692;9.020;2023-04-19T03:46:12;10.33;;;4.20;;
4057;SDS011;2044;48.692;9.020;2023-04-19T03:48:38;7.40;;;3.83;;
4057;SDS011;2044;48.692;9.020;2023-04-19T03:51:05;7.87;;;3.23;;
4057;SDS011;2044;48.692;9.020;2023-04-19T03:53:32;6.70;;;3.30;;
4057;SDS011;2044;48.692;9.020;2023-04-19T03:55:58;4.03;;;2.20;;
4057;SDS011;2044;48.692;9.020;2023-04-19T03:58:26;5.73;;;2.57;;
4057;SDS011;2044;48.692;9.020;2023-04-19T04:00:53;5.60;;;2.97;;
4057;SDS011;2044;48.692;9.020;2023-04-19T04:03:19;4.10;;;2.80;;
4057;SDS011;2044;48.692;9.020;2023-04-19T04:05:46;3.33;;;2.17;;
4057;SDS011;2044;48.692;9.020;2023-04-19T04:08:13;5.80;;;2.63;;
4057;SDS011;2044;48.692;9.020;2023-04-19T04:10:40;8.40;;;3.10;;
4057;SDS011;2044;48.692;9.020;2023-04-19T04:13:06;3.50;;;2.67;;
4057;SDS011;2044;48.692;9.020;2023-04-19T04:15:34;5.77;;;3.70;;
4057;SDS011;2044;48.692;9.020;2023-04-19T04:18:01;6.23;;;3.73;;
4057;SDS011;2044;48.692;9.020;2023-04-19T04:20:28;6.60;;;4.43;;
4057;SDS011;2044;48.692;9.020;2023-04-19T04:22:55;3.03;;;2.40;;
4057;SDS011;2044;48.692;9.020;2023-04-19T04:25:22;5.23;;;3.17;;
4057;SDS011;2044;48.692;9.020;2023-04-19T04:27:50;3.80;;;3.07;;
4057;SDS011;2044;48.692;9.020;2023-04-19T04:30:17;5.10;;;3.60;;
4057;SDS011;2044;48.692;9.020;2023-04-19T04:32:45;8.93;;;4.17;;
4057;SDS011;2044;48.692;9.020;2023-04-19T04:35:15;9.60;;;4.07;;
4057;SDS011;2044;48.692;9.020;2023-04-19T04:37:42;9.50;;;3.13;;
4057;SDS011;2044;48.692;9.020;2023-04-19T04:40:09;5.97;;;3.43;;
4057;SDS011;2044;48.692;9.020;2023-04-19T04:42:37;9.10;;;2.87;;
4057;SDS011;2044;48.692;9.020;2023-04-19T04:45:04;5.80;;;3.73;;
4057;SDS011;2044;48.692;9.020;2023-04-19T04:47:31;10.47;;;4.60;;
4057;SDS011;2044;48.692;9.020;2023-04-19T04:50:00;2.80;;;2.40;;
4057;SDS011;2044;48.692;9.020;2023-04-19T04:52:27;13.33;;;4.03;;
4057;SDS011;2044;48.692;9.020;2023-04-19T04:54:54;7.13;;;4.27;;
4057;SDS011;2044;48.692;9.020;2023-04-19T04:57:21;2.70;;;1.27;;
4057;SDS011;2044;48.692;9.020;2023-04-19T04:59:47;9.97;;;4.40;;
4057;SDS011;2044;48.692;9.020;2023-04-19T05:02:14;5.03;;;3.30;;
4057;SDS011;2044;48.692;9.020;2023-04-19T05:04:42;5.13;;;2.53;;
4057;SDS011;2044;48.692;9.020;2023-04-19T05:07:10;4.90;;;2.67;;
4057;SDS011;2044;48.692;9.020;2023-04-19T05:09:37;5.80;;;2.97;;
4057;SDS011;2044;48.692;9.020;2023-04-19T05:12:04;8.27;;;3.70;;
4057;SDS011;2044;48.692;9.020;2023-04-19T05:14:31;8.70;;;3.57;;
4057;SDS011;2044;48.692;9.020;2023-04-19T05:16:57;7.87;;;4.10;;
4057;SDS011;2044;48.692;9.020;2023-04-19T05:19:24;7.00;;;4.33;;
4057;SDS011;2044;48.692;9.020;2023-04-19T05:21:51;4.37;;;3.43;;
4057;SDS011;2044;48.692;9.020;2023-04-19T05:24:19;5.43;;;3.83;;
4057;SDS011;2044;48.692;9.020;2023-04-19T05:26:45;3.97;;;2.80;;
4057;SDS011;2044;48.692;9.020;2023-04-19T05:29:12;2.60;;;1.90;;
4057;SDS011;2044;48.692;9.020;2023-04-19T05:31:39;6.50;;;3.60;;
4057;SDS011;2044;48.692;9.020;2023-04-19T05:34:05;3.80;;;2.43;;
4057;SDS011;2044;48.692;9.020;2023-04-19T05:36:33;9.60;;;4.13;;
4057;SDS011;2044;48.692;9.020;2023-04-19T05:39:00;4.00;;;2.70;;
4057;SDS011;2044;48.692;9.020;2023-04-19T05:41:28;8.47;;;4.90;;
4057;SDS011;2044;48.692;9.020;2023-04-19T05:43:55;8.07;;;3.43;;
4057;SDS011;2044;48.692;9.020;2023-04-19T05:46:21;9.17;;;4.07;;
4057;SDS011;2044;48.692;9.020;2023-04-19T05:48:48;9.00;;;5.23;;
4057;SDS011;2044;48.692;9.020;2023-04-19T05:51:15;4.90;;;3.27;;
4057;SDS011;2044;48.692;9.020;2023-04-19T05:53:42;6.67;;;3.10;;
4057;SDS011;2044;48.692;9.020;2023-04-19T05:56:10;8.57;;;3.53;;
4057;SDS011;2044;48.692;9.020;2023-04-19T05:58:38;11.57;;;5.87;;
4057;SDS011;2044;48.692;9.020;2023-04-19T06:01:04;7.57;;;4.53;;
4057;SDS011;2044;48.692;9.020;2023-04-19T06:03:31;9.20;;;5.00;;
4057;SDS011;2044;48.692;9.020;2023-04-19T06:05:58;6.87;;;3.60;;
4057;SDS011;2044;48.692;9.020;2023-04-19T06:08:25;4.07;;;2.40;;
4057;SDS011;2044;48.692;9.020;2023-04-19T06:10:52;12.00;;;6.07;;
4057;SDS011;2044;48.692;9.020;2023-04-19T06:13:20;8.40;;;4.40;;
4057;SDS011;2044;48.692;9.020;2023-04-19T06:15:48;16.23;;;7.97;;
4057;SDS011;2044;48.692;9.020;2023-04-19T06:18:15;4.57;;;2.33;;
4057;SDS011;2044;48.692;9.020;2023-04-19T06:20:41;6.30;;;3.67;;
4057;SDS011;2044;48.692;9.020;2023-04-19T06:23:08;10.93;;;4.60;;
4057;SDS011;2044;48.692;9.020;2023-04-19T06:25:36;7.53;;;3.87;;
4057;SDS011;2044;48.692;9.020;2023-04-19T06:28:04;6.87;;;2.93;;
4057;SDS011;2044;48.692;9.020;2023-04-19T06:30:31;9.20;;;4.30;;
4057;SDS011;2044;48.692;9.020;2023-04-19T06:32:59;7.93;;;5.27;;
4057;SDS011;2044;48.692;9.020;2023-04-19T06:35:25;7.90;;;4.53;;
4057;SDS011;2044;48.692;9.020;2023-04-19T06:37:52;6.00;;;4.90;;
4057;SDS011;2044;48.692;9.020;2023-04-19T06:40:19;4.00;;;2.30;;
4057;SDS011;2044;48.692;9.020;2023-04-19T06:42:46;10.90;;;5.70;;
4057;SDS011;2044;48.692;9.020;2023-04-19T06:45:12;8.37;;;4.67;;
4057;SDS011;2044;48.692;9.020;2023-04-19T06:47:40;7.53;;;3.97;;
4057;SDS011;2044;48.692;9.020;2023-04-19T06:50:08;6.27;;;4.57;;
4057;SDS011;2044;48.692;9.020;2023-04-19T06:52:36;5.27;;;3.10;;
4057;SDS011;2044;48.692;9.020;2023-04-19T06:55:04;4.80;;;2.60;;
4057;SDS011;2044;48.692;9.020;2023-04-19T06:57:31;10.83;;;4.77;;
4057;SDS011;2044;48.692;9.020;2023-04-19T06:59:58;6.80;;;4.07;;
4057;SDS011;2044;48.692;9.020;2023-04-19T07:02:25;10.90;;;5.10;;
4057;SDS011;2044;48.692;9.020;2023-04-19T07:04:53;10.23;;;5.17;;
4057;SDS011;2044;48.692;9.020;2023-04-19T07:07:21;6.13;;;2.87;;
4057;SDS011;2044;48.692;9.020;2023-04-19T07:09:47;7.13;;;4.57;;
4057;SDS011;2044;48.692;9.020;2023-04-19T07:12:14;4.73;;;3.50;;
4057;SDS011;2044;48.692;9.020;2023-04-19T07:14:41;7.00;;;3.43;;
4057;SDS011;2044;48.692;9.020;2023-04-19T07:17:08;9.10;;;4.40;;
4057;SDS011;2044;48.692;9.020;2023-04-19T07:19:35;6.90;;;3.03;;
4057;SDS011;2044;48.692;9.020;2023-04-19T07:22:01;3.40;;;2.90;;
4057;SDS011;2044;48.692;9.020;2023-04-19T07:24:31;8.27;;;3.50;;
4057;SDS011;2044;48.692;9.020;2023-04-19T07:26:58;3.53;;;2.50;;
4057;SDS011;2044;48.692;9.020;2023-04-19T07:29:25;2.90;;;2.13;;
4057;SDS011;2044;48.692;9.020;2023-04-19T07:31:52;4.53;;;3.03;;
4057;SDS011;2044;48.692;9.020;2023-04-19T07:34:19;5.17;;;3.23;;
4057;SDS011;2044;48.692;9.020;2023-04-19T07:36:46;5.10;;;3.80;;
4057;SDS011;2044;48.692;9.020;2023-04-19T07:39:12;10.10;;;5.70;;
4057;SDS011;2044;48.692;9.020;2023-04-19T07:41:40;7.20;;;3.20;;
4057;SDS011;2044;48.692;9.020;2023-04-19T07:44:07;3.40;;;2.83;;
4057;SDS011;2044;48.692;9.020;2023-04-19T07:46:35;7.37;;;5.77;;
4057;SDS011;2044;48.692;9.020;2023-04-19T07:49:02;13.53;;;4.70;;
4057;SDS011;2044;48.692;9.020;2023-04-19T07:51:29;3.60;;;2.27;;
4057;SDS011;2044;48.692;9.020;2023-04-19T07:53:56;6.13;;;3.90;;
4057;SDS011;2044;48.692;9.020;2023-04-19T07:56:22;6.20;;;4.13;;
4057;SDS011;2044;48.692;9.020;2023-04-19T07:58:52;2.70;;;2.43;;
4057;SDS011;2044;48.692;9.020;2023-04-19T08:01:18;4.57;;;3.47;;
4057;SDS011;2044;48.692;9.020;2023-04-19T08:03:45;7.27;;;4.33;;
4057;SDS011;2044;48.692;9.020;2023-04-19T08:06:12;4.47;;;3.60;;
4057;SDS011;2044;48.692;9.020;2023-04-19T08:08:39;7.63;;;4.10;;
4057;SDS011;2044;48.692;9.020;2023-04-19T08:11:05;5.33;;;4.77;;
4057;SDS011;2044;48.692;9.020;2023-04-19T08:13:32;8.33;;;4.67;;
4057;SDS011;2044;48.692;9.020;2023-04-19T08:16:01;6.80;;;5.17;;
4057;SDS011;2044;48.692;9.020;2023-04-19T08:18:28;4.83;;;4.33;;
4057;SDS011;2044;48.692;9.020;2023-04-19T08:20:54;6.33;;;3.73;;
4057;SDS011;2044;48.692;9.020;2023-04-19T08:23:22;4.60;;;3.83;;
4057;SDS011;2044;48.692;9.020;2023-04-19T08:25:49;6.70;;;5.63;;
4057;SDS011;2044;48.692;9.020;2023-04-19T08:28:15;7.13;;;6.43;;
4057;SDS011;2044;48.692;9.020;2023-04-19T08:30:42;5.73;;;5.07;;
4057;SDS011;2044;48.692;9.020;2023-04-19T08:33:10;8.33;;;6.60;;
4057;SDS011;2044;48.692;9.020;2023-04-19T08:35:37;5.13;;;4.63;;
4057;SDS011;2044;48.692;9.020;2023-04-19T08:38:05;5.97;;;5.03;;
4057;SDS011;2044;48.692;9.020;2023-04-19T08:40:32;5.93;;;5.30;;
4057;SDS011;2044;48.692;9.020;2023-04-19T08:42:59;6.40;;;5.80;;
4057;SDS011;2044;48.692;9.020;2023-04-19T08:45:30;5.57;;;5.07;;
4057;SDS011;2044;48.692;9.020;2023-04-19T08:47:58;6.20;;;5.80;;
4057;SDS011;2044;48.692;9.020;2023-04-19T08:50:28;7.40;;;5.77;;
4057;SDS011;2044;48.692;9.020;2023-04-19T08:52:54;6.50;;;6.10;;
4057;SDS011;2044;48.692;9.020;2023-04-19T08:55:23;6.50;;;5.90;;
4057;SDS011;2044;48.692;9.020;2023-04-19T08:57:50;7.93;;;7.23;;
4057;SDS011;2044;48.692;9.020;2023-04-19T09:00:17;7.97;;;7.33;;
4057;SDS011;2044;48.692;9.020;2023-04-19T09:02:45;7.77;;;7.17;;
4057;SDS011;2044;48.692;9.020;2023-04-19T09:05:13;9.27;;;8.37;;
4057;SDS011;2044;48.692;9.020;2023-04-19T09:07:43;10.73;;;8.77;;
4057;SDS011;2044;48.692;9.020;2023-04-19T09:10:11;9.07;;;7.33;;
4057;SDS011;2044;48.692;9.020;2023-04-19T09:12:40;6.30;;;5.80;;
4057;SDS011;2044;48.692;9.020;2023-04-19T09:15:07;7.20;;;6.50;;
4057;SDS011;2044;48.692;9.020;2023-04-19T09:17:35;7.77;;;7.07;;
4057;SDS011;2044;48.692;9.020;2023-04-19T09:20:03;7.60;;;6.90;;
4057;SDS011;2044;48.692;9.020;2023-04-19T09:22:31;9.03;;;7.00;;
4057;SDS011;2044;48.692;9.020;2023-04-19T09:25:00;6.13;;;5.70;;
4057;SDS011;2044;48.692;9.020;2023-04-19T09:27:27;8.10;;;7.30;;
4057;SDS011;2044;48.692;9.020;2023-04-19T09:29:55;7.30;;;6.80;;
4057;SDS011;2044;48.692;9.020;2023-04-19T09:32:22;7.20;;;6.70;;
4057;SDS011;2044;48.692;9.020;2023-04-19T09:34:50;6.57;;;6.17;;
4057;SDS011;2044;48.692;9.020;2023-04-19T09:37:18;6.87;;;6.40;;
4057;SDS011;2044;48.692;9.020;2023-04-19T09:39:45;9.57;;;8.83;;
4057;SDS011;2044;48.692;9.020;2023-04-19T09:42:13;6.90;;;6.50;;
4057;SDS011;2044;48.692;9.020;2023-04-19T09:44:41;8.77;;;8.10;;
4057;SDS011;2044;48.692;9.020;2023-04-19T09:47:20;9.10;;;8.43;;
4057;SDS011;2044;48.692;9.020;2023-04-19T09:52:32;10.17;;;9.40;;
4057;SDS011;2044;48.692;9.020;2023-04-19T09:54:59;10.10;;;9.43;;
4057;SDS011;2044;48.692;9.020;2023-04-19T09:57:29;10.93;;;10.13;;
4057;SDS011;2044;48.692;9.020;2023-04-19T09:59:57;9.93;;;9.33;;
4057;SDS011;2044;48.692;9.020;2023-04-19T10:02:25;9.50;;;9.00;;
4057;SDS011;2044;48.692;9.020;2023-04-19T10:04:55;9.97;;;9.37;;
4057;SDS011;2044;48.692;9.020;2023-04-19T10:07:23;9.83;;;9.27;;
4057;SDS011;2044;48.692;9.020;2023-04-19T10:09:50;10.63;;;9.70;;
4057;SDS011;2044;48.692;9.020;2023-04-19T10:12:20;10.30;;;9.37;;
4057;SDS011;2044;48.692;9.020;2023-04-19T10:14:52;9.70;;;9.03;;
4057;SDS011;2044;48.692;9.020;2023-04-19T10:17:21;9.67;;;9.17;;
4057;SDS011;2044;48.692;9.020;2023-04-19T10:19:50;9.80;;;9.20;;
4057;SDS011;2044;48.692;9.020;2023-04-19T10:22:22;10.67;;;9.87;;
4057;SDS011;2044;48.692;9.020;2023-04-19T10:25:07;9.20;;;8.60;;
4057;SDS011;2044;48.692;9.020;2023-04-19T10:27:36;11.73;;;10.80;;
4057;SDS011;2044;48.692;9.020;2023-04-19T10:30:06;10.30;;;9.60;;
4057;SDS011;2044;48.692;9.020;2023-04-19T10:32:43;10.30;;;9.60;;
4057;SDS011;2044;48.692;9.020;2023-04-19T10:35:16;11.97;;;9.47;;
4057;SDS011;2044;48.692;9.020;2023-04-19T10:43:22;9.80;;;9.20;;
4057;SDS011;2044;48.692;9.020;2023-04-19T10:45:50;8.83;;;8.37;;
4057;SDS011;2044;48.692;9.020;2023-04-19T10:51:13;7.97;;;7.50;;
4057;SDS011;2044;48.692;9.020;2023-04-19T10:53:43;8.20;;;7.50;;
4057;SDS011;2044;48.692;9.020;2023-04-19T10:56:18;8.80;;;8.00;;
4057;SDS011;2044;48.692;9.020;2023-04-19T11:01:48;8.77;;;8.23;;
4057;SDS011;2044;48.692;9.020;2023-04-19T11:04:17;10.03;;;9.20;;
4057;SDS011;2044;48.692;9.020;2023-04-19T11:06:57;9.30;;;8.70;;
4057;SDS011;2044;48.692;9.020;2023-04-19T11:09:27;10.53;;;9.80;;
4057;SDS011;2044;48.692;9.020;2023-04-19T11:11:59;9.33;;;8.67;;
4057;SDS011;2044;48.692;9.020;2023-04-19T11:14:29;10.50;;;9.60;;
4057;SDS011;2044;48.692;9.020;2023-04-19T11:16:58;8.73;;;8.23;;
4057;SDS011;2044;48.692;9.020;2023-04-19T11:19:25;9.90;;;9.07;;
4057;SDS011;2044;48.692;9.020;2023-04-19T11:21:52;9.33;;;8.50;;
4057;SDS011;2044;48.692;9.020;2023-04-19T11:24:23;8.07;;;7.53;;
4057;SDS011;2044;48.692;9.020;2023-04-19T11:26:50;8.80;;;7.90;;
4057;SDS011;2044;48.692;9.020;2023-04-19T11:29:18;7.33;;;6.70;;
4057;SDS011;2044;48.692;9.020;2023-04-19T11:31:46;8.80;;;8.13;;
4057;SDS011;2044;48.692;9.020;2023-04-19T11:34:14;6.10;;;5.80;;
4057;SDS011;2044;48.692;9.020;2023-04-19T11:36:47;5.47;;;5.17;;
4057;SDS011;2044;48.692;9.020;2023-04-19T11:39:15;7.60;;;6.37;;
4057;SDS011;2044;48.692;9.020;2023-04-19T11:41:42;5.93;;;5.57;;
4057;SDS011;2044;48.692;9.020;2023-04-19T11:44:14;6.40;;;5.80;;
4057;SDS011;2044;48.692;9.020;2023-04-19T11:46:56;5.77;;;5.27;;
4057;SDS011;2044;48.692;9.020;2023-04-19T11:49:28;8.50;;;5.63;;
4057;SDS011;2044;48.692;9.020;2023-04-19T11:51:56;4.60;;;4.30;;
4057;SDS011;2044;48.692;9.020;2023-04-19T11:54:25;8.70;;;5.20;;
4057;SDS011;2044;48.692;9.020;2023-04-19T11:57:01;4.50;;;4.20;;
4057;SDS011;2044;48.692;9.020;2023-04-19T11:59:29;8.40;;;4.47;;
4057;SDS011;2044;48.692;9.020;2023-04-19T12:02:03;5.20;;;4.70;;
4057;SDS011;2044;48.692;9.020;2023-04-19T12:04:32;4.43;;;4.10;;
4057;SDS011;2044;48.692;9.020;2023-04-19T12:06:59;4.80;;;4.00;;
4057;SDS011;2044;48.692;9.020;2023-04-19T12:09:27;3.13;;;2.90;;
4057;SDS011;2044;48.692;9.020;2023-04-19T12:11:54;5.87;;;4.17;;
4057;SDS011;2044;48.692;9.020;2023-04-19T12:14:21;3.93;;;2.73;;
4057;SDS011;2044;48.692;9.020;2023-04-19T12:17:03;2.50;;;2.30;;
4057;SDS011;2044;48.692;9.020;2023-04-19T12:19:35;3.07;;;2.40;;
4057;SDS011;2044;48.692;9.020;2023-04-19T12:22:06;2.87;;;2.30;;
4057;SDS011;2044;48.692;9.020;2023-04-19T12:24:34;3.80;;;2.47;;
4057;SDS011;2044;48.692;9.020;2023-04-19T12:27:00;5.80;;;2.90;;
4057;SDS011;2044;48.692;9.020;2023-04-19T12:29:27;10.50;;;3.50;;
4057;SDS011;2044;48.692;9.020;2023-04-19T12:31:54;7.10;;;3.80;;
4057;SDS011;2044;48.692;9.020;2023-04-19T12:34:21;2.90;;;2.70;;
4057;SDS011;2044;48.692;9.020;2023-04-19T12:36:49;6.80;;;4.23;;
4057;SDS011;2044;48.692;9.020;2023-04-19T12:39:16;2.20;;;1.50;;
4057;SDS011;2044;48.692;9.020;2023-04-19T12:41:43;4.30;;;2.20;;
4057;SDS011;2044;48.692;9.020;2023-04-19T12:44:12;6.93;;;2.80;;
4057;SDS011;2044;48.692;9.020;2023-04-19T12:46:38;5.13;;;2.63;;
4057;SDS011;2044;48.692;9.020;2023-04-19T12:49:05;2.33;;;1.80;;
4057;SDS011;2044;48.692;9.020;2023-04-19T12:51:32;2.53;;;1.47;;
4057;SDS011;2044;48.692;9.020;2023-04-19T12:54:01;2.53;;;1.27;;
4057;SDS011;2044;48.692;9.020;2023-04-19T12:56:28;2.10;;;1.80;;
4057;SDS011;2044;48.692;9.020;2023-04-19T12:58:54;3.73;;;3.20;;
4057;SDS011;2044;48.692;9.020;2023-04-19T13:01:21;5.30;;;1.87;;
4057;SDS011;2044;48.692;9.020;2023-04-19T13:03:48;5.80;;;3.23;;
4057;SDS011;2044;48.692;9.020;2023-04-19T13:06:15;5.97;;;3.70;;
4057;SDS011;2044;48.692;9.020;2023-04-19T13:08:41;3.10;;;1.87;;
4057;SDS011;2044;48.692;9.020;2023-04-19T13:11:10;3.77;;;1.43;;
4057;SDS011;2044;48.692;9.020;2023-04-19T13:13:37;2.47;;;2.13;;
4057;SDS011;2044;48.692;9.020;2023-04-19T13:16:04;6.10;;;3.60;;
4057;SDS011;2044;48.692;9.020;2023-04-19T13:18:31;5.90;;;3.43;;
4057;SDS011;2044;48.692;9.020;2023-04-19T13:20:58;6.97;;;3.80;;
4057;SDS011;2044;48.692;9.020;2023-04-19T13:23:25;8.60;;;3.37;;
4057;SDS011;2044;48.692;9.020;2023-04-19T13:25:51;4.53;;;2.37;;
4057;SDS011;2044;48.692;9.020;2023-04-19T13:28:20;7.40;;;3.60;;
4057;SDS011;2044;48.692;9.020;2023-04-19T13:30:46;3.63;;;2.10;;
4057;SDS011;2044;48.692;9.020;2023-04-19T13:33:13;6.67;;;3.50;;
4057;SDS011;2044;48.692;9.020;2023-04-19T13:35:40;7.23;;;3.27;;
4057;SDS011;2044;48.692;9.020;2023-04-19T13:38:08;5.20;;;3.73;;
4057;SDS011;2044;48.692;9.020;2023-04-19T13:40:35;5.70;;;2.80;;
4057;SDS011;2044;48.692;9.020;2023-04-19T13:43:02;4.80;;;3.20;;
4057;SDS011;2044;48.692;9.020;2023-04-19T13:45:30;8.73;;;3.10;;
4057;SDS011;2044;48.692;9.020;2023-04-19T13:47:57;3.43;;;2.30;;
4057;SDS011;2044;48.692;9.020;2023-04-19T13:50:23;8.97;;;2.97;;
4057;SDS011;2044;48.692;9.020;2023-04-19T13:52:50;7.90;;;3.80;;
4057;SDS011;2044;48.692;9.020;2023-04-19T13:55:17;5.00;;;2.27;;
4057;SDS011;2044;48.692;9.020;2023-04-19T13:57:44;3.33;;;2.00;;
4057;SDS011;2044;48.692;9.020;2023-04-19T14:00:11;6.27;;;2.57;;
4057;SDS011;2044;48.692;9.020;2023-04-19T14:02:40;4.60;;;3.53;;
4057;SDS011;2044;48.692;9.020;2023-04-19T14:05:07;2.00;;;1.80;;
4057;SDS011;2044;48.692;9.020;2023-04-19T14:07:37;3.97;;;2.43;;
4057;SDS011;2044;48.692;9.020;2023-04-19T14:10:05;17.67;;;4.97;;
4057;SDS011;2044;48.692;9.020;2023-04-19T14:12:32;7.10;;;3.60;;
4057;SDS011;2044;48.692;9.020;2023-04-19T14:14:59;7.07;;;4.03;;
4057;SDS011;2044;48.692;9.020;2023-04-19T14:17:25;4.90;;;2.13;;
4057;SDS011;2044;48.692;9.020;2023-04-19T14:19:53;4.63;;;2.50;;
4057;SDS011;2044;48.692;9.020;2023-04-19T14:22:20;10.20;;;5.67;;
4057;SDS011;2044;48.692;9.020;2023-04-19T14:24:47;3.97;;;2.50;;
4057;SDS011;2044;48.692;9.020;2023-04-19T14:27:13;4.33;;;2.03;;
4057;SDS011;2044;48.692;9.020;2023-04-19T14:29:40;7.60;;;4.53;;
4057;SDS011;2044;48.692;9.020;2023-04-19T14:32:07;8.50;;;5.23;;
4057;SDS011;2044;48.692;9.020;2023-04-19T14:34:34;3.37;;;2.20;;
4057;SDS011;2044;48.692;9.020;2023-04-19T14:37:02;5.97;;;3.27;;
4057;SDS011;2044;48.692;9.020;2023-04-19T14:39:28;3.33;;;2.27;;
4057;SDS011;2044;48.692;9.020;2023-04-19T14:41:55;5.17;;;3.47;;
4057;SDS011;2044;48.692;9.020;2023-04-19T14:44:22;4.57;;;3.23;;
4057;SDS011;2044;48.692;9.020;2023-04-19T14:46:49;11.40;;;5.63;;
4057;SDS011;2044;48.692;9.020;2023-04-19T14:49:15;6.40;;;3.17;;
4057;SDS011;2044;48.692;9.020;2023-04-19T14:51:42;8.40;;;4.17;;
4057;SDS011;2044;48.692;9.020;2023-04-19T14:54:10;8.67;;;3.33;;
4057;SDS011;2044;48.692;9.020;2023-04-19T14:56:37;4.70;;;3.00;;
4057;SDS011;2044;48.692;9.020;2023-04-19T14:59:04;4.90;;;3.30;;
4057;SDS011;2044;48.692;9.020;2023-04-19T15:01:32;7.97;;;4.60;;
4057;SDS011;2044;48.692;9.020;2023-04-19T15:03:58;7.60;;;3.80;;
4057;SDS011;2044;48.692;9.020;2023-04-19T15:06:25;5.77;;;3.30;;
4057;SDS011;2044;48.692;9.020;2023-04-19T15:08:52;10.73;;;5.87;;
4057;SDS011;2044;48.692;9.020;2023-04-19T15:11:20;6.40;;;2.27;;
4057;SDS011;2044;48.692;9.020;2023-04-19T15:13:47;5.37;;;3.57;;
4057;SDS011;2044;48.692;9.020;2023-04-19T15:16:13;13.83;;;7.13;;
4057;SDS011;2044;48.692;9.020;2023-04-19T15:18:40;5.90;;;3.40;;
4057;SDS011;2044;48.692;9.020;2023-04-19T15:21:07;13.10;;;6.97;;
4057;SDS011;2044;48.692;9.020;2023-04-19T15:23:33;12.30;;;6.00;;
4057;SDS011;2044;48.692;9.020;2023-04-19T15:26:01;7.50;;;4.00;;
4057;SDS011;2044;48.692;9.020;2023-04-19T15:28:29;9.87;;;5.90;;
4057;SDS011;2044;48.692;9.020;2023-04-19T15:31:00;8.27;;;3.50;;